createdAt,value
2023-04-18T00:02:29.566Z,42.60
2023-04-18T00:04:57.887Z,42.70
2023-04-18T00:07:26.000Z,42.60
2023-04-18T00:09:53.924Z,42.70
2023-04-18T00:12:22.016Z,42.70
2023-04-18T00:14:50.389Z,42.70
2023-04-18T00:17:18.646Z,42.80
2023-04-18T00:19:48.077Z,42.80
2023-04-18T00:22:17.326Z,42.90
2023-04-18T00:24:45.257Z,42.90
2023-04-18T00:27:13.489Z,42.90
2023-04-18T00:29:42.380Z,43.00
2023-04-18T00:32:10.600Z,43.00
2023-04-18T00:34:38.790Z,43.10
2023-04-18T00:37:08.744Z,43.20
2023-04-18T00:39:36.904Z,43.30
2023-04-18T00:42:05.206Z,43.20
2023-04-18T00:44:33.509Z,43.20
2023-04-18T00:47:01.362Z,43.20
2023-04-18T00:49:29.499Z,43.30
2023-04-18T00:51:58.092Z,43.30
2023-04-18T00:54:28.207Z,43.40
2023-04-18T00:56:56.714Z,43.50
2023-04-18T00:59:25.120Z,43.50
2023-04-18T01:01:53.304Z,43.50
2023-04-18T01:04:21.542Z,43.50
2023-04-18T01:06:49.742Z,43.50
2023-04-18T01:09:18.153Z,43.60
2023-04-18T01:11:47.427Z,43.70
2023-04-18T01:14:17.604Z,43.60
2023-04-18T01:16:46.053Z,43.60
2023-04-18T01:19:14.013Z,43.70
2023-04-18T01:21:43.689Z,43.80
2023-04-18T01:24:17.474Z,43.90
2023-04-18T01:26:48.306Z,43.90
2023-04-18T01:29:16.552Z,43.90
2023-04-18T01:31:44.462Z,43.90
2023-04-18T01:34:12.607Z,44.00
2023-04-18T01:36:42.958Z,44.10
2023-04-18T01:39:12.910Z,44.10
2023-04-18T01:41:42.701Z,44.10
2023-04-18T01:44:11.351Z,44.10
2023-04-18T01:46:40.033Z,44.10
2023-04-18T01:49:08.924Z,44.20
2023-04-18T01:51:38.730Z,44.20
2023-04-18T01:54:06.834Z,44.30
2023-04-18T01:56:34.725Z,44.20
2023-04-18T01:59:04.848Z,44.30
2023-04-18T02:01:32.914Z,44.40
2023-04-18T02:04:00.893Z,44.40
2023-04-18T02:06:28.889Z,44.40
2023-04-18T02:08:56.820Z,44.40
2023-04-18T02:11:26.348Z,45.00
2023-04-18T02:13:54.595Z,44.50
2023-04-18T02:16:24.132Z,44.60
2023-04-18T02:18:52.813Z,44.70
2023-04-18T02:21:21.890Z,44.70
2023-04-18T02:23:50.970Z,44.70
2023-04-18T02:26:18.826Z,44.70
2023-04-18T02:28:46.961Z,44.70
2023-04-18T02:31:15.889Z,44.80
2023-04-18T02:33:46.837Z,44.80
2023-04-18T02:36:14.691Z,44.90
2023-04-18T02:38:44.995Z,44.90
2023-04-18T02:41:15.358Z,44.90
2023-04-18T02:43:43.633Z,45.00
2023-04-18T02:46:11.767Z,45.00
2023-04-18T02:48:40.117Z,45.10
2023-04-18T02:51:11.148Z,45.20
2023-04-18T02:53:40.305Z,45.20
2023-04-18T02:56:08.814Z,45.20
2023-04-18T02:58:56.904Z,45.20
2023-04-18T03:01:46.666Z,45.10
2023-04-18T03:04:17.678Z,45.10
2023-04-18T03:07:07.184Z,45.20
2023-04-18T03:09:38.132Z,45.20
2023-04-18T03:12:17.964Z,45.30
2023-04-18T03:14:47.257Z,45.20
2023-04-18T03:17:16.111Z,45.30
2023-04-18T03:19:48.928Z,45.40
2023-04-18T03:22:21.636Z,45.40
2023-04-18T03:24:57.772Z,45.50
2023-04-18T03:27:41.018Z,45.50
2023-04-18T03:30:11.995Z,45.50
2023-04-18T03:32:42.630Z,45.50
2023-04-18T03:35:11.160Z,45.50
2023-04-18T03:37:40.948Z,45.50
2023-04-18T03:40:11.466Z,45.60
2023-04-18T03:42:39.376Z,45.70
2023-04-18T03:45:08.641Z,45.70
2023-04-18T03:47:37.979Z,45.80
2023-04-18T03:50:07.618Z,45.80
2023-04-18T03:52:35.920Z,45.90
2023-04-18T03:55:07.870Z,45.80
2023-04-18T03:57:36.102Z,45.90
2023-04-18T04:00:09.106Z,45.90
2023-04-18T04:02:57.732Z,45.90
2023-04-18T04:05:25.859Z,45.90
2023-04-18T04:07:54.103Z,46.10
2023-04-18T04:10:23.460Z,46.10
2023-04-18T04:12:52.300Z,46.10
2023-04-18T04:15:20.846Z,46.10
2023-04-18T04:17:55.615Z,46.30
2023-04-18T04:20:24.961Z,46.40
2023-04-18T04:23:01.117Z,46.40
2023-04-18T04:25:33.212Z,46.40
2023-04-18T04:28:04.509Z,46.50
2023-04-18T04:30:38.210Z,46.60
2023-04-18T04:33:07.534Z,46.70
2023-04-18T04:35:36.635Z,46.80
2023-04-18T04:38:05.699Z,46.80
2023-04-18T04:40:43.870Z,46.90
2023-04-18T04:43:15.640Z,47.00
2023-04-18T04:45:45.398Z,47.00
2023-04-18T04:48:13.530Z,47.10
2023-04-18T04:50:43.434Z,47.00
2023-04-18T04:53:13.074Z,47.10
2023-04-18T04:55:41.353Z,47.10
2023-04-18T04:58:10.949Z,47.10
2023-04-18T05:01:01.761Z,47.20
2023-04-18T05:03:30.756Z,47.20
2023-04-18T05:05:58.973Z,47.30
2023-04-18T05:08:27.273Z,47.40
2023-04-18T05:10:55.773Z,47.50
2023-04-18T05:13:25.177Z,47.60
2023-04-18T05:15:53.078Z,47.70
2023-04-18T05:18:21.128Z,47.70
2023-04-18T05:20:49.288Z,47.70
2023-04-18T05:23:17.507Z,47.70
2023-04-18T05:25:45.687Z,47.70
2023-04-18T05:28:13.903Z,47.70
2023-04-18T05:30:43.397Z,47.80
2023-04-18T05:33:11.510Z,47.80
2023-04-18T05:35:39.476Z,47.70
2023-04-18T05:38:07.519Z,47.80
2023-04-18T05:40:35.512Z,47.80
2023-04-18T05:43:03.464Z,47.90
2023-04-18T05:45:31.339Z,47.90
2023-04-18T05:48:00.644Z,47.80
2023-04-18T05:50:28.931Z,47.90
2023-04-18T05:52:59.439Z,47.90
2023-04-18T05:55:27.284Z,47.90
2023-04-18T05:57:55.248Z,47.90
2023-04-18T06:00:23.622Z,47.90
2023-04-18T06:02:51.674Z,47.90
2023-04-18T06:05:21.508Z,47.80
2023-04-18T06:07:49.623Z,47.80
2023-04-18T06:10:17.657Z,47.80
2023-04-18T06:12:45.713Z,47.90
2023-04-18T06:15:13.788Z,48.00
2023-04-18T06:17:41.829Z,48.00
2023-04-18T06:20:10.997Z,48.00
2023-04-18T06:22:40.274Z,48.10
2023-04-18T06:25:10.151Z,48.10
2023-04-18T06:27:38.307Z,48.10
2023-04-18T06:30:07.682Z,48.00
2023-04-18T06:32:35.972Z,48.10
2023-04-18T06:35:03.956Z,48.00
2023-04-18T06:37:32.167Z,48.10
2023-04-18T06:40:01.710Z,48.20
2023-04-18T06:42:29.828Z,48.10
2023-04-18T06:44:57.850Z,48.20
2023-04-18T06:47:25.889Z,48.20
2023-04-18T06:49:54.053Z,48.20
2023-04-18T06:52:22.070Z,48.20
2023-04-18T06:54:50.312Z,48.30
2023-04-18T06:57:19.643Z,48.40
2023-04-18T06:59:47.512Z,48.90
2023-04-18T07:02:15.826Z,48.40
2023-04-18T07:04:43.927Z,48.40
2023-04-18T07:07:12.059Z,48.50
2023-04-18T07:09:39.906Z,48.50
2023-04-18T07:12:08.313Z,48.50
2023-04-18T07:14:37.587Z,48.70
2023-04-18T07:17:05.787Z,48.80
2023-04-18T07:19:33.832Z,48.60
2023-04-18T07:22:01.993Z,48.70
2023-04-18T07:24:30.379Z,48.70
2023-04-18T07:26:58.366Z,48.70
2023-04-18T07:29:26.481Z,48.70
2023-04-18T07:31:55.992Z,48.80
2023-04-18T07:34:23.853Z,48.90
2023-04-18T07:36:52.239Z,49.00
2023-04-18T07:39:20.206Z,49.00
2023-04-18T07:41:48.172Z,48.90
2023-04-18T07:44:16.508Z,48.80
2023-04-18T07:46:44.480Z,48.80
2023-04-18T07:49:14.319Z,48.70
2023-04-18T07:51:42.645Z,48.80
2023-04-18T07:54:11.545Z,48.70
2023-04-18T07:56:39.435Z,48.60
2023-04-18T07:59:07.397Z,48.60
2023-04-18T08:01:35.620Z,48.60
2023-04-18T08:04:04.359Z,48.60
2023-04-18T08:06:34.564Z,48.70
2023-04-18T08:09:05.576Z,48.70
2023-04-18T08:11:34.744Z,48.60
2023-04-18T08:14:03.217Z,48.50
2023-04-18T08:16:31.349Z,48.20
2023-04-18T08:18:59.575Z,48.20
2023-04-18T08:21:27.695Z,48.00
2023-04-18T08:23:57.189Z,47.90
2023-04-18T08:26:25.145Z,47.70
2023-04-18T08:28:53.267Z,47.60
2023-04-18T08:31:21.209Z,47.60
2023-04-18T08:33:49.336Z,47.70
2023-04-18T08:36:17.275Z,48.30
2023-04-18T08:38:45.632Z,49.90
2023-04-18T08:41:17.424Z,51.30
2023-04-18T08:43:49.255Z,52.20
2023-04-18T08:46:17.358Z,52.80
2023-04-18T08:48:46.835Z,52.20
2023-04-18T08:51:14.676Z,50.30
2023-04-18T08:53:45.202Z,48.00
2023-04-18T08:56:16.297Z,46.60
2023-04-18T08:58:45.110Z,46.80
2023-04-18T09:01:13.527Z,47.70
2023-04-18T09:03:43.192Z,48.00
2023-04-18T09:06:13.646Z,47.60
2023-04-18T09:08:43.287Z,46.80
2023-04-18T09:11:28.902Z,46.10
2023-04-18T09:13:59.014Z,44.30
2023-04-18T09:16:29.141Z,44.30
2023-04-18T09:19:12.917Z,42.50
2023-04-18T09:21:42.209Z,39.90
2023-04-18T09:24:21.151Z,39.80
2023-04-18T09:26:51.348Z,38.20
2023-04-18T09:29:22.538Z,38.20
2023-04-18T09:31:59.658Z,38.10
2023-04-18T09:34:29.023Z,37.70
2023-04-18T09:37:15.235Z,38.00
2023-04-18T09:39:44.627Z,37.90
2023-04-18T09:42:14.769Z,38.40
2023-04-18T09:45:03.920Z,38.60
2023-04-18T09:47:34.850Z,38.60
2023-04-18T09:50:03.699Z,39.20
2023-04-18T09:52:36.083Z,39.50
2023-04-18T09:55:05.963Z,39.80
2023-04-18T09:57:38.745Z,40.00
2023-04-18T10:00:13.966Z,40.20
2023-04-18T10:02:49.804Z,40.40
2023-04-18T10:05:20.975Z,40.50
2023-04-18T10:07:51.057Z,40.80
2023-04-18T10:10:19.611Z,41.00
2023-04-18T10:12:50.766Z,41.40
2023-04-18T10:15:21.096Z,41.60
2023-04-18T10:20:27.836Z,41.60
2023-04-18T10:22:57.014Z,41.50
2023-04-18T10:25:49.956Z,41.20
2023-04-18T10:28:21.024Z,40.90
2023-04-18T10:31:07.979Z,41.00
2023-04-18T10:33:42.527Z,40.80
2023-04-18T10:36:20.169Z,40.90
2023-04-18T10:38:50.612Z,40.90
2023-04-18T10:41:22.379Z,40.90
2023-04-18T10:44:14.855Z,40.80
2023-04-18T10:46:44.526Z,40.80
2023-04-18T10:49:16.972Z,41.00
2023-04-18T10:51:45.518Z,40.90
2023-04-18T10:54:20.814Z,41.10
2023-04-18T10:56:56.722Z,41.70
2023-04-18T10:59:27.157Z,41.90
2023-04-18T11:01:58.437Z,42.50
2023-04-18T11:04:26.685Z,42.40
2023-04-18T11:06:57.267Z,42.10
2023-04-18T11:09:25.904Z,42.30
2023-04-18T11:12:05.613Z,42.60
2023-04-18T11:14:45.457Z,41.70
2023-04-18T11:17:18.140Z,41.00
2023-04-18T11:19:46.493Z,41.00
2023-04-18T11:22:15.357Z,40.70
2023-04-18T11:24:43.859Z,40.10
2023-04-18T11:27:13.063Z,40.80
2023-04-18T11:29:40.913Z,40.00
2023-04-18T11:32:11.197Z,39.30
2023-04-18T11:34:39.107Z,39.00
2023-04-18T11:37:08.418Z,39.00
2023-04-18T11:39:41.940Z,38.80
2023-04-18T11:42:10.438Z,38.60
2023-04-18T11:44:40.068Z,38.30
2023-04-18T11:47:28.798Z,38.10
2023-04-18T11:49:58.324Z,37.70
2023-04-18T11:52:28.353Z,37.90
2023-04-18T11:54:57.072Z,37.90
2023-04-18T11:57:26.632Z,38.30
2023-04-18T11:59:57.377Z,39.30
2023-04-18T12:02:39.828Z,39.80
2023-04-18T12:05:08.736Z,39.80
2023-04-18T12:07:38.917Z,39.80
2023-04-18T12:10:08.900Z,39.50
2023-04-18T12:12:37.240Z,39.20
2023-04-18T12:15:10.112Z,38.60
2023-04-18T12:17:39.414Z,37.90
2023-04-18T12:20:10.248Z,37.40
2023-04-18T12:22:46.089Z,37.20
2023-04-18T12:25:20.245Z,36.80
2023-04-18T12:27:50.767Z,36.90
2023-04-18T12:30:21.308Z,36.90
2023-04-18T12:32:52.824Z,37.00
2023-04-18T12:35:22.022Z,36.90
2023-04-18T12:37:51.455Z,37.00
2023-04-18T12:40:20.380Z,37.10
2023-04-18T12:42:48.619Z,36.90
2023-04-18T12:45:18.055Z,36.80
2023-04-18T12:47:47.675Z,36.90
2023-04-18T12:50:19.999Z,37.00
2023-04-18T12:52:48.805Z,36.90
2023-04-18T12:55:16.775Z,36.90
2023-04-18T12:57:45.473Z,37.00
2023-04-18T13:00:14.832Z,37.00
2023-04-18T13:02:44.892Z,37.10
2023-04-18T13:05:15.167Z,37.40
2023-04-18T13:07:44.893Z,37.60
2023-04-18T13:10:14.120Z,37.70
2023-04-18T13:12:42.814Z,37.70
2023-04-18T13:15:11.435Z,37.60
2023-04-18T13:17:40.318Z,37.90
2023-04-18T13:20:10.716Z,38.30
2023-04-18T13:22:39.005Z,38.20
2023-04-18T13:25:10.480Z,38.50
2023-04-18T13:27:41.318Z,38.30
2023-04-18T13:30:11.635Z,37.90
2023-04-18T13:32:40.474Z,38.10
2023-04-18T13:35:10.373Z,37.30
2023-04-18T13:37:39.042Z,37.30
2023-04-18T13:40:09.637Z,37.20
2023-04-18T13:42:38.345Z,37.00
2023-04-18T13:45:07.495Z,37.00
2023-04-18T13:47:35.960Z,37.40
2023-04-18T13:50:04.029Z,36.80
2023-04-18T13:52:32.131Z,36.80
2023-04-18T13:55:00.857Z,36.90
2023-04-18T13:57:32.045Z,36.90
2023-04-18T14:00:00.614Z,36.90
2023-04-18T14:02:28.613Z,37.00
2023-04-18T14:04:58.242Z,37.20
2023-04-18T14:07:26.662Z,37.40
2023-04-18T14:09:54.546Z,37.50
2023-04-18T14:12:22.694Z,37.60
2023-04-18T14:14:52.441Z,37.70
2023-04-18T14:17:20.696Z,37.90
2023-04-18T14:19:49.369Z,38.20
2023-04-18T14:22:17.377Z,38.00
2023-04-18T14:24:45.504Z,37.50
2023-04-18T14:27:13.513Z,37.10
2023-04-18T14:29:41.331Z,36.90
2023-04-18T14:32:10.739Z,36.80
2023-04-18T14:34:38.892Z,36.70
2023-04-18T14:37:07.262Z,36.80
2023-04-18T14:39:35.101Z,36.90
2023-04-18T14:42:03.459Z,37.00
2023-04-18T14:44:31.857Z,36.90
2023-04-18T14:47:00.149Z,36.70
2023-04-18T14:49:29.477Z,36.60
2023-04-18T14:51:57.416Z,36.30
2023-04-18T14:54:25.252Z,36.40
2023-04-18T14:56:53.345Z,36.30
2023-04-18T14:59:21.274Z,36.40
2023-04-18T15:01:49.486Z,36.30
2023-04-18T15:04:17.602Z,36.30
2023-04-18T15:06:47.427Z,36.40
2023-04-18T15:09:15.890Z,36.40
2023-04-18T15:11:43.931Z,36.50
2023-04-18T15:14:11.840Z,36.50
2023-04-18T15:16:40.748Z,36.60
2023-04-18T15:19:09.006Z,36.60
2023-04-18T15:21:36.879Z,36.60
2023-04-18T15:24:06.948Z,36.50
2023-04-18T15:26:34.826Z,36.60
2023-04-18T15:29:04.044Z,36.50
2023-04-18T15:31:32.472Z,36.50
2023-04-18T15:34:00.841Z,36.60
2023-04-18T15:36:28.924Z,36.70
2023-04-18T15:38:56.846Z,36.70
2023-04-18T15:41:26.432Z,36.90
2023-04-18T15:43:54.376Z,37.10
2023-04-18T15:46:22.526Z,37.20
2023-04-18T15:48:50.748Z,37.20
2023-04-18T15:51:18.994Z,37.20
2023-04-18T15:53:46.995Z,37.10
2023-04-18T15:56:14.983Z,37.00
2023-04-18T15:58:44.299Z,37.00
2023-04-18T16:01:15.911Z,36.90
2023-04-18T16:03:44.197Z,37.20
2023-04-18T16:06:12.675Z,37.40
2023-04-18T16:08:40.922Z,37.40
2023-04-18T16:11:09.006Z,37.60
2023-04-18T16:13:38.402Z,37.70
2023-04-18T16:16:08.533Z,37.80
2023-04-18T16:18:36.675Z,37.60
2023-04-18T16:21:04.867Z,37.30
2023-04-18T16:23:33.756Z,37.00
2023-04-18T16:26:01.666Z,36.80
2023-04-18T16:28:30.652Z,36.70
2023-04-18T16:30:58.550Z,36.60
2023-04-18T16:33:28.462Z,36.70
2023-04-18T16:35:58.608Z,37.00
2023-04-18T16:38:27.524Z,37.10
2023-04-18T16:40:56.991Z,37.20
2023-04-18T16:43:27.010Z,37.10
2023-04-18T16:45:56.516Z,36.90
2023-04-18T16:48:25.155Z,36.80
2023-04-18T16:50:54.368Z,36.70
2023-04-18T16:53:22.628Z,36.70
2023-04-18T16:55:52.148Z,36.80
2023-04-18T16:58:20.285Z,36.80
2023-04-18T17:00:48.710Z,36.90
2023-04-18T17:03:16.942Z,37.00
2023-04-18T17:05:45.628Z,37.00
2023-04-18T17:08:14.949Z,37.00
2023-04-18T17:10:44.466Z,37.10
2023-04-18T17:13:12.347Z,37.20
2023-04-18T17:15:40.586Z,37.20
2023-04-18T17:18:08.615Z,37.30
2023-04-18T17:20:37.111Z,37.40
2023-04-18T17:23:05.077Z,37.50
2023-04-18T17:25:34.669Z,37.50
2023-04-18T17:28:03.337Z,37.70
2023-04-18T17:30:31.621Z,37.80
2023-04-18T17:32:59.487Z,37.80
2023-04-18T17:35:27.475Z,37.80
2023-04-18T17:37:55.489Z,37.80
2023-04-18T17:40:23.548Z,37.80
2023-04-18T17:42:52.943Z,38.00
2023-04-18T17:45:21.244Z,38.00
2023-04-18T17:47:50.832Z,38.10
2023-04-18T17:50:19.133Z,38.10
2023-04-18T17:52:47.353Z,38.10
2023-04-18T17:55:15.630Z,38.20
2023-04-18T17:57:43.667Z,38.30
2023-04-18T18:00:14.439Z,38.30
2023-04-18T18:02:44.021Z,38.40
2023-04-18T18:05:14.245Z,38.40
2023-04-18T18:07:43.346Z,38.40
2023-04-18T18:10:12.574Z,38.50
2023-04-18T18:12:41.096Z,38.60
2023-04-18T18:15:09.888Z,38.80
2023-04-18T18:17:39.543Z,38.80
2023-04-18T18:20:09.762Z,38.90
2023-04-18T18:22:38.095Z,38.90
2023-04-18T18:25:06.681Z,38.90
2023-04-18T18:27:34.695Z,39.00
2023-04-18T18:30:03.217Z,39.00
2023-04-18T18:32:31.144Z,39.00
2023-04-18T18:35:01.753Z,39.10
2023-04-18T18:37:29.820Z,39.20
2023-04-18T18:39:58.657Z,39.20
2023-04-18T18:42:26.606Z,39.30
2023-04-18T18:44:54.776Z,39.40
2023-04-18T18:47:22.911Z,39.50
2023-04-18T18:49:50.832Z,39.60
2023-04-18T18:52:20.357Z,39.60
2023-04-18T18:54:48.281Z,39.70
2023-04-18T18:57:16.443Z,39.70
2023-04-18T18:59:44.434Z,39.80
2023-04-18T19:02:12.560Z,39.90
2023-04-18T19:04:40.851Z,39.90
2023-04-18T19:07:08.921Z,39.90
2023-04-18T19:09:38.383Z,40.00
2023-04-18T19:12:07.035Z,40.10
2023-04-18T19:14:35.231Z,40.10
2023-04-18T19:17:03.424Z,40.20
2023-04-18T19:19:31.844Z,40.20
2023-04-18T19:22:01.097Z,40.20
2023-04-18T19:24:29.117Z,40.40
2023-04-18T19:26:59.536Z,40.30
2023-04-18T19:29:27.594Z,40.40
2023-04-18T19:31:56.024Z,40.50
2023-04-18T19:34:23.977Z,40.50
2023-04-18T19:36:52.055Z,40.50
2023-04-18T19:39:20.099Z,40.60
2023-04-18T19:41:48.485Z,40.60
2023-04-18T19:44:17.893Z,40.50
2023-04-18T19:46:45.957Z,40.60
2023-04-18T19:49:14.696Z,40.70
2023-04-18T19:51:45.721Z,40.70
2023-04-18T19:54:14.079Z,40.70
2023-04-18T19:56:42.098Z,40.80
2023-04-18T19:59:10.000Z,40.80
2023-04-18T20:01:39.532Z,40.90
2023-04-18T20:04:08.395Z,40.90
2023-04-18T20:06:37.707Z,41.00
2023-04-18T20:09:05.758Z,41.00
2023-04-18T20:11:33.836Z,41.10
2023-04-18T20:14:02.553Z,41.10
2023-04-18T20:16:30.458Z,41.20
2023-04-18T20:19:01.596Z,41.20
2023-04-18T20:21:29.709Z,41.30
2023-04-18T20:23:58.237Z,41.30
2023-04-18T20:26:26.527Z,41.40
2023-04-18T20:28:54.416Z,41.50
2023-04-18T20:31:22.473Z,41.50
2023-04-18T20:33:50.395Z,41.50
2023-04-18T20:36:19.873Z,41.50
2023-04-18T20:38:50.248Z,41.60
2023-04-18T20:41:20.704Z,41.60
2023-04-18T20:43:50.669Z,41.60
2023-04-18T20:46:18.724Z,41.70
2023-04-18T20:48:46.744Z,41.80
2023-04-18T20:51:14.708Z,41.80
2023-04-18T20:53:45.261Z,41.80
2023-04-18T20:56:13.135Z,41.80
2023-04-18T20:58:41.890Z,41.80
2023-04-18T21:01:09.894Z,41.80
2023-04-18T21:03:38.113Z,41.80
2023-04-18T21:06:06.326Z,41.90
2023-04-18T21:08:37.804Z,41.90
2023-04-18T21:11:07.195Z,42.00
2023-04-18T21:13:35.744Z,42.00
2023-04-18T21:16:07.595Z,42.10
2023-04-18T21:18:35.692Z,42.10
2023-04-18T21:21:03.972Z,42.10
2023-04-18T21:23:31.887Z,42.10
2023-04-18T21:25:59.846Z,42.20
2023-04-18T21:28:29.230Z,42.20
2023-04-18T21:30:57.081Z,42.30
2023-04-18T21:33:26.223Z,42.30
2023-04-18T21:35:54.224Z,42.30
2023-04-18T21:38:25.469Z,42.40
2023-04-18T21:40:53.336Z,42.40
2023-04-18T21:43:21.463Z,42.50
2023-04-18T21:45:50.766Z,42.60
2023-04-18T21:48:18.852Z,42.60
2023-04-18T21:50:46.721Z,42.60
2023-04-18T21:53:15.053Z,42.60
2023-04-18T21:55:42.964Z,42.70
2023-04-18T21:58:11.070Z,42.80
2023-04-18T22:00:38.990Z,42.80
2023-04-18T22:03:08.780Z,42.90
2023-04-18T22:05:38.918Z,43.00
2023-04-18T22:08:07.345Z,43.00
2023-04-18T22:10:35.632Z,42.90
2023-04-18T22:13:05.318Z,43.00
2023-04-18T22:15:33.532Z,43.10
2023-04-18T22:18:01.700Z,43.10
2023-04-18T22:20:31.551Z,43.20
2023-04-18T22:22:59.686Z,43.20
2023-04-18T22:25:27.574Z,43.20
2023-04-18T22:27:55.767Z,43.30
2023-04-18T22:30:23.663Z,43.30
2023-04-18T22:32:51.820Z,43.40
2023-04-18T22:35:20.061Z,43.40
2023-04-18T22:37:49.558Z,43.50
2023-04-18T22:40:17.573Z,43.50
2023-04-18T22:42:45.796Z,43.50
2023-04-18T22:45:14.575Z,43.50
2023-04-18T22:47:42.674Z,43.60
2023-04-18T22:50:11.133Z,43.60
2023-04-18T22:52:39.208Z,43.70
2023-04-18T22:55:09.333Z,43.80
2023-04-18T22:57:38.972Z,43.90
2023-04-18T23:00:10.018Z,43.90
2023-04-18T23:02:38.568Z,44.00
2023-04-18T23:05:08.196Z,44.00
2023-04-18T23:07:36.090Z,44.10
2023-04-18T23:10:06.609Z,44.10
2023-04-18T23:12:35.901Z,44.10
2023-04-18T23:15:03.928Z,44.10
2023-04-18T23:17:31.874Z,44.10
2023-04-18T23:19:59.991Z,44.10
2023-04-18T23:22:30.146Z,44.20
2023-04-18T23:24:58.212Z,44.30
2023-04-18T23:27:26.152Z,44.40
2023-04-18T23:29:55.708Z,44.40
2023-04-18T23:32:23.946Z,44.50
2023-04-18T23:34:52.304Z,44.50
2023-04-18T23:37:20.206Z,44.60
2023-04-18T23:39:48.320Z,44.60
2023-04-18T23:42:16.276Z,44.60
2023-04-18T23:44:44.236Z,44.60
2023-04-18T23:47:13.760Z,44.70
2023-04-18T23:49:41.827Z,44.70
2023-04-18T23:52:09.689Z,44.80
2023-04-18T23:54:37.672Z,44.80
2023-04-18T23:57:06.041Z,44.80
2023-04-18T23:59:34.013Z,44.90
